Time;durP1;ratioP1;P1;durP2;ratioP2;P2;SDS_P1;SDS_P2;PMS_P1;PMS_P2;Temp;Humidity;BMP_temperature;BMP_pressure;BME280_temperature;BME280_humidity;BME280_pressure;Samples;Min_cycle;Max_cycle;Signal;HPM_P1;HPM_P2
2024/03/13 00:01:50;;;;;;;14.82;9.43;;;10.10;99.90;;;;;;4933476;29;20208;-82
2024/03/13 00:04:17;;;;;;;12.30;9.02;;;10.20;99.90;;;;;;4933356;29;20213;-82
2024/03/13 00:06:43;;;;;;;10.73;7.88;;;10.20;99.90;;;;;;4932690;29;20220;-82
2024/03/13 00:09:09;;;;;;;11.65;8.93;;;10.20;99.90;;;;;;4932034;29;20673;-82
2024/03/13 00:11:36;;;;;;;11.55;7.80;;;10.20;99.90;;;;;;4933179;29;20203;-82
2024/03/13 00:14:02;;;;;;;12.73;9.30;;;10.20;99.90;;;;;;4933498;29;20203;-82
2024/03/13 00:16:31;;;;;;;13.82;10.48;;;10.20;99.90;;;;;;4933683;29;20272;-82
2024/03/13 00:18:58;;;;;;;12.07;8.70;;;10.20;99.90;;;;;;4932532;29;20181;-82
2024/03/13 00:21:28;;;;;;;12.55;9.68;;;10.20;99.90;;;;;;4933548;29;20185;-82
2024/03/13 00:23:54;;;;;;;12.32;8.85;;;10.20;99.90;;;;;;4935399;29;20209;-82
2024/03/13 00:26:24;;;;;;;12.93;8.73;;;10.20;99.90;;;;;;4933998;29;20169;-82
2024/03/13 00:28:50;;;;;;;10.73;8.57;;;10.20;99.90;;;;;;4934049;29;20644;-82
2024/03/13 00:31:19;;;;;;;10.03;7.00;;;10.20;99.90;;;;;;4933906;29;20181;-82
2024/03/13 00:33:46;;;;;;;9.85;7.90;;;10.20;99.90;;;;;;4934725;29;20209;-81
2024/03/13 00:36:12;;;;;;;10.30;8.23;;;10.20;99.90;;;;;;4933646;29;20640;-82
2024/03/13 00:38:38;;;;;;;13.07;9.17;;;10.20;99.90;;;;;;4935376;29;20231;-83
2024/03/13 00:41:03;;;;;;;11.07;7.93;;;10.20;99.90;;;;;;4937364;29;20199;-83
2024/03/13 00:43:32;;;;;;;11.57;8.93;;;10.20;99.90;;;;;;4937879;29;20708;-83
2024/03/13 00:45:59;;;;;;;10.63;7.88;;;10.20;99.90;;;;;;4936383;29;20636;-81
2024/03/13 00:48:31;;;;;;;9.80;7.85;;;10.20;99.90;;;;;;4937931;29;20276;-82
2024/03/13 00:50:58;;;;;;;10.43;8.60;;;10.20;99.90;;;;;;4945181;29;20173;-82
2024/03/13 00:53:27;;;;;;;9.00;5.97;;;10.20;99.90;;;;;;4959433;28;20193;-82
2024/03/13 00:55:55;;;;;;;11.30;8.10;;;10.20;99.90;;;;;;4936997;29;20181;-82
2024/03/13 00:58:21;;;;;;;10.70;7.68;;;10.20;99.90;;;;;;4936843;29;20173;-81
2024/03/13 01:00:48;;;;;;;11.18;8.15;;;10.20;99.90;;;;;;4935744;29;20268;-82
2024/03/13 01:03:14;;;;;;;9.98;7.78;;;10.20;99.90;;;;;;4935491;29;20235;-82
2024/03/13 01:05:43;;;;;;;11.43;9.20;;;10.20;99.90;;;;;;4936653;29;20209;-81
2024/03/13 01:08:09;;;;;;;11.23;8.82;;;10.20;99.90;;;;;;4935004;29;20545;-81
2024/03/13 01:10:35;;;;;;;13.67;9.77;;;10.20;99.90;;;;;;4934794;29;20192;-80
2024/03/13 01:13:01;;;;;;;9.47;7.00;;;10.10;99.90;;;;;;4934727;29;21018;-80
2024/03/13 01:15:27;;;;;;;9.90;8.53;;;10.10;99.90;;;;;;4936425;29;20655;-80
2024/03/13 01:17:53;;;;;;;10.38;7.88;;;10.10;99.90;;;;;;4936059;29;20180;-80
2024/03/13 01:20:19;;;;;;;10.20;8.00;;;10.10;99.90;;;;;;4935340;29;21805;-80
2024/03/13 01:22:49;;;;;;;10.90;7.80;;;10.10;99.90;;;;;;4936135;29;20644;-80
2024/03/13 01:25:15;;;;;;;7.18;6.15;;;10.10;99.90;;;;;;4918693;29;20228;-80
2024/03/13 01:27:46;;;;;;;7.78;6.43;;;10.10;99.90;;;;;;4934335;29;20177;-79
2024/03/13 01:30:15;;;;;;;7.90;6.82;;;10.10;99.90;;;;;;4934275;29;20181;-80
2024/03/13 01:32:43;;;;;;;7.22;6.00;;;10.10;99.90;;;;;;4935959;29;20196;-80
2024/03/13 01:35:10;;;;;;;6.70;5.80;;;10.10;99.90;;;;;;4935893;29;20181;-80
2024/03/13 01:40:25;;;;;;;8.10;6.30;;;10.10;99.90;;;;;;4934253;29;20185;-80
2024/03/13 01:57:02;;;;;;;7.50;6.15;;;10.10;99.90;;;;;;4936580;29;20243;-80
2024/03/13 02:02:22;;;;;;;6.35;5.05;;;10.10;99.90;;;;;;4924962;29;20254;-80
2024/03/13 02:04:50;;;;;;;5.50;4.40;;;10.00;99.90;;;;;;4919404;29;20264;-80
2024/03/13 02:07:21;;;;;;;6.68;4.85;;;10.00;99.90;;;;;;4936129;29;20189;-80
2024/03/13 02:09:49;;;;;;;6.00;5.25;;;10.00;99.90;;;;;;4934814;29;20205;-79
2024/03/13 02:12:15;;;;;;;5.97;4.88;;;10.10;99.90;;;;;;4936029;29;20193;-79
2024/03/13 02:14:43;;;;;;;5.47;4.78;;;10.00;99.90;;;;;;4936106;29;20241;-80
2024/03/13 02:17:10;;;;;;;3.80;3.27;;;10.00;99.90;;;;;;4937402;29;20704;-80
2024/03/13 02:19:37;;;;;;;4.80;3.75;;;10.10;99.90;;;;;;4935868;29;20181;-80
2024/03/13 02:22:05;;;;;;;4.60;4.07;;;10.00;99.90;;;;;;4927042;29;20731;-79
2024/03/13 02:24:33;;;;;;;5.13;4.57;;;10.10;99.90;;;;;;4927577;29;20201;-80
2024/03/13 02:27:00;;;;;;;6.20;4.72;;;10.10;99.90;;;;;;4934625;29;20185;-80
2024/03/13 02:29:28;;;;;;;5.85;4.93;;;10.10;99.90;;;;;;4935808;29;20530;-79
2024/03/13 02:31:54;;;;;;;5.43;4.07;;;10.10;99.90;;;;;;4934917;29;20832;-81
2024/03/13 02:34:20;;;;;;;4.70;3.53;;;10.10;99.90;;;;;;4936105;29;20185;-81
2024/03/13 02:36:47;;;;;;;3.97;3.55;;;10.10;99.90;;;;;;4935676;29;20208;-78
2024/03/13 02:39:19;;;;;;;5.78;4.68;;;10.20;99.90;;;;;;4918427;29;20189;-78
2024/03/13 02:41:45;;;;;;;4.57;3.78;;;10.10;99.90;;;;;;4934577;29;20594;-79
2024/03/13 02:44:11;;;;;;;4.38;3.95;;;10.10;99.90;;;;;;4935261;29;20212;-79
2024/03/13 02:46:37;;;;;;;5.17;4.17;;;10.10;99.90;;;;;;4935250;29;20185;-81
2024/03/13 02:49:03;;;;;;;4.15;3.78;;;10.10;99.90;;;;;;4934873;29;20679;-79
2024/03/13 02:51:30;;;;;;;5.57;4.07;;;10.10;99.90;;;;;;4932835;29;20180;-79
2024/03/13 02:53:56;;;;;;;5.00;4.25;;;10.00;99.90;;;;;;4936578;29;20204;-80
2024/03/13 02:56:22;;;;;;;6.13;4.60;;;10.10;99.90;;;;;;4934489;29;20542;-79
2024/03/13 02:58:48;;;;;;;6.20;3.93;;;10.10;99.90;;;;;;4934736;29;20262;-79
2024/03/13 03:20:10;;;;;;;3.25;2.72;;;10.00;99.90;;;;;;4929351;29;20196;-79
2024/03/13 03:22:35;;;;;;;3.83;3.38;;;10.00;99.90;;;;;;4933767;29;20208;-80
2024/03/13 03:25:01;;;;;;;5.60;3.50;;;10.10;99.90;;;;;;4933995;29;20268;-80
2024/03/13 03:27:27;;;;;;;3.23;2.93;;;10.00;99.90;;;;;;4933115;29;20192;-79
2024/03/13 03:29:52;;;;;;;3.20;2.37;;;10.00;99.90;;;;;;4934896;29;20547;-79
2024/03/13 03:32:21;;;;;;;3.40;3.10;;;10.00;99.90;;;;;;4934110;29;20322;-80
2024/03/13 03:34:47;;;;;;;3.88;3.35;;;10.10;99.90;;;;;;4935743;29;20671;-79
2024/03/13 03:37:16;;;;;;;3.97;3.33;;;10.10;99.90;;;;;;4934581;29;20181;-79
2024/03/13 03:39:42;;;;;;;3.28;2.80;;;10.10;99.90;;;;;;4933019;29;20647;-80
2024/03/13 03:42:08;;;;;;;3.30;2.80;;;10.10;99.90;;;;;;4934712;29;20610;-79
2024/03/13 03:44:34;;;;;;;3.70;2.70;;;10.10;99.90;;;;;;4918981;29;20636;-80
2024/03/13 03:47:00;;;;;;;3.50;2.63;;;10.10;99.90;;;;;;4935683;29;20520;-80
2024/03/13 03:49:26;;;;;;;2.50;2.30;;;10.20;99.90;;;;;;4934867;29;20581;-80
2024/03/13 03:51:52;;;;;;;2.97;2.67;;;10.20;99.90;;;;;;4933586;29;20980;-80
2024/03/13 03:54:18;;;;;;;3.70;2.80;;;10.20;99.90;;;;;;4935191;29;20554;-80
2024/03/13 03:56:45;;;;;;;2.70;2.50;;;10.20;99.90;;;;;;4934389;29;20283;-81
2024/03/13 03:59:11;;;;;;;3.15;2.85;;;10.20;99.90;;;;;;4935542;29;20181;-79
2024/03/13 04:01:37;;;;;;;3.43;3.13;;;10.30;99.90;;;;;;4920821;28;20239;-80
2024/03/13 04:04:06;;;;;;;3.50;3.20;;;10.20;99.90;;;;;;4938097;29;20698;-80
2024/03/13 04:06:31;;;;;;;4.10;3.13;;;10.30;99.90;;;;;;4918046;29;21269;-80
2024/03/13 04:08:57;;;;;;;3.40;3.10;;;10.30;99.90;;;;;;4933768;29;20267;-80
2024/03/13 04:11:24;;;;;;;4.00;3.00;;;10.30;99.90;;;;;;4932211;29;20628;-81
2024/03/13 04:13:50;;;;;;;3.17;2.88;;;10.30;99.90;;;;;;4939005;29;20593;-80
2024/03/13 04:16:16;;;;;;;2.65;2.28;;;10.30;99.90;;;;;;4940679;29;20191;-80
2024/03/13 04:18:43;;;;;;;4.53;3.55;;;10.30;99.90;;;;;;4940766;29;20176;-80
2024/03/13 04:21:10;;;;;;;4.40;4.00;;;10.30;99.90;;;;;;4938204;29;20172;-80
2024/03/13 04:23:38;;;;;;;3.60;3.30;;;10.30;99.90;;;;;;4939181;29;20573;-80
2024/03/13 04:26:04;;;;;;;3.53;3.13;;;10.30;99.90;;;;;;4939113;29;20200;-80
2024/03/13 04:28:30;;;;;;;3.03;2.53;;;10.30;99.90;;;;;;4939741;29;20184;-80
2024/03/13 04:30:55;;;;;;;3.70;3.37;;;10.30;99.90;;;;;;4939093;29;20191;-79
2024/03/13 04:33:23;;;;;;;4.30;3.83;;;10.30;99.90;;;;;;4942324;29;20196;-79
2024/03/13 04:35:48;;;;;;;4.22;3.83;;;10.30;99.90;;;;;;4950883;29;20180;-80
2024/03/13 04:38:15;;;;;;;4.30;3.90;;;10.30;99.90;;;;;;4957267;29;20212;-78
2024/03/13 04:40:44;;;;;;;3.70;2.50;;;10.30;99.90;;;;;;4957518;29;20592;-80
2024/03/13 04:43:10;;;;;;;3.40;2.85;;;10.30;99.90;;;;;;4958623;29;20204;-80
2024/03/13 04:45:38;;;;;;;2.57;2.30;;;10.30;99.90;;;;;;4950829;29;20231;-79
2024/03/13 04:48:05;;;;;;;3.15;2.85;;;10.30;99.90;;;;;;4956574;29;20603;-74
2024/03/13 04:50:33;;;;;;;2.55;2.17;;;10.40;99.90;;;;;;4943143;29;20193;-74
2024/03/13 04:53:00;;;;;;;3.20;2.15;;;10.40;99.90;;;;;;4942419;29;20192;-75
2024/03/13 04:55:29;;;;;;;3.35;3.05;;;10.50;99.90;;;;;;4942024;29;20275;-74
2024/03/13 04:57:55;;;;;;;3.28;2.92;;;10.40;99.90;;;;;;4940537;29;20180;-74
2024/03/13 05:00:21;;;;;;;3.53;2.85;;;10.40;99.90;;;;;;4939219;29;20177;-74
2024/03/13 05:02:47;;;;;;;3.23;2.93;;;10.40;99.90;;;;;;4939898;29;20583;-74
2024/03/13 05:05:13;;;;;;;4.50;3.80;;;10.40;99.90;;;;;;4930464;29;21049;-74
2024/03/13 05:07:39;;;;;;;2.53;2.33;;;10.40;99.90;;;;;;4940127;29;20176;-74
2024/03/13 05:10:06;;;;;;;4.18;3.78;;;10.40;99.90;;;;;;4953598;28;20185;-74
2024/03/13 05:12:36;;;;;;;6.15;3.38;;;10.40;99.90;;;;;;4937736;29;20200;-74
2024/03/13 05:15:06;;;;;;;3.42;2.97;;;10.40;99.90;;;;;;4938845;29;20192;-73
2024/03/13 05:17:39;;;;;;;3.60;2.95;;;10.40;99.90;;;;;;4937725;29;20656;-74
2024/03/13 05:20:11;;;;;;;3.10;2.80;;;10.40;99.90;;;;;;4938697;29;20524;-73
2024/03/13 05:22:37;;;;;;;3.65;3.35;;;10.50;99.90;;;;;;4938898;29;20200;-73
2024/03/13 05:25:04;;;;;;;4.00;3.15;;;10.50;99.90;;;;;;4934854;29;20264;-74
2024/03/13 05:27:30;;;;;;;2.88;2.63;;;10.50;99.90;;;;;;4935689;29;20185;-74
2024/03/13 05:29:56;;;;;;;3.50;3.20;;;10.50;99.90;;;;;;4918236;29;20553;-73
2024/03/13 05:32:22;;;;;;;2.50;2.30;;;10.50;99.90;;;;;;4935439;29;20636;-73
2024/03/13 05:34:49;;;;;;;3.88;2.40;;;10.60;99.90;;;;;;4934699;29;20184;-74
2024/03/13 05:37:15;;;;;;;2.95;2.50;;;10.60;99.90;;;;;;4934528;29;20173;-74
2024/03/13 05:39:40;;;;;;;2.87;2.60;;;10.60;99.90;;;;;;4935323;29;20663;-74
2024/03/13 05:42:07;;;;;;;3.47;3.17;;;10.60;99.90;;;;;;4934091;29;20200;-74
2024/03/13 05:44:34;;;;;;;3.60;3.30;;;10.60;99.90;;;;;;4935843;29;20754;-74
2024/03/13 05:46:59;;;;;;;3.65;3.22;;;10.70;99.90;;;;;;4935367;29;20259;-73
2024/03/13 05:49:25;;;;;;;2.93;2.43;;;10.70;99.90;;;;;;4918651;29;20634;-74
2024/03/13 05:51:54;;;;;;;3.33;3.03;;;10.70;99.90;;;;;;4933753;29;20605;-74
2024/03/13 05:54:20;;;;;;;3.15;2.40;;;10.70;99.90;;;;;;4935704;29;20184;-74
2024/03/13 05:56:45;;;;;;;3.13;2.60;;;10.70;99.90;;;;;;4934868;29;20236;-74
2024/03/13 05:59:11;;;;;;;3.80;3.10;;;10.70;99.90;;;;;;4949980;29;20579;-74
2024/03/13 06:01:37;;;;;;;3.23;2.80;;;10.70;99.90;;;;;;4945145;28;20631;-74
2024/03/13 06:04:03;;;;;;;3.90;3.43;;;10.70;99.90;;;;;;4939849;29;20513;-74
2024/03/13 06:06:28;;;;;;;4.10;3.80;;;10.70;99.90;;;;;;4933786;29;20216;-74
2024/03/13 06:08:54;;;;;;;3.17;2.87;;;10.80;99.90;;;;;;4935538;29;20181;-74
2024/03/13 06:11:20;;;;;;;3.67;3.35;;;10.70;99.90;;;;;;4935041;28;20173;-74
2024/03/13 06:13:46;;;;;;;5.13;3.90;;;10.80;99.90;;;;;;4954727;29;20204;-74
2024/03/13 06:16:13;;;;;;;3.70;3.40;;;10.80;99.90;;;;;;4938802;28;20236;-74
2024/03/13 06:18:40;;;;;;;5.40;3.85;;;10.80;99.90;;;;;;4935155;29;20589;-74
2024/03/13 06:21:07;;;;;;;4.45;4.05;;;10.80;99.90;;;;;;4933180;29;20177;-74
2024/03/13 06:23:36;;;;;;;3.38;3.08;;;10.80;99.90;;;;;;4934803;29;20300;-74
2024/03/13 06:26:07;;;;;;;4.35;3.33;;;10.80;99.90;;;;;;4934537;29;20248;-74
2024/03/13 06:31:17;;;;;;;3.97;3.08;;;10.90;99.90;;;;;;4937095;29;20609;-74
2024/03/13 06:33:43;;;;;;;4.70;4.30;;;10.90;99.90;;;;;;4933389;29;20184;-74
2024/03/13 06:36:09;;;;;;;4.07;3.63;;;10.90;99.90;;;;;;4934149;29;20185;-74
2024/03/13 06:38:34;;;;;;;3.60;3.30;;;10.90;99.90;;;;;;4934560;29;20192;-74
2024/03/13 06:41:00;;;;;;;3.43;3.13;;;10.90;99.90;;;;;;4933772;29;20187;-75
2024/03/13 06:43:26;;;;;;;5.47;4.18;;;10.90;99.90;;;;;;4964692;28;20211;-74
2024/03/13 06:45:53;;;;;;;3.90;3.57;;;11.00;99.90;;;;;;4934326;29;20208;-74
2024/03/13 06:48:18;;;;;;;3.88;3.58;;;11.10;99.90;;;;;;4934028;29;20177;-75
2024/03/13 06:50:44;;;;;;;4.97;4.47;;;11.10;99.90;;;;;;4964664;28;20177;-76
2024/03/13 06:53:10;;;;;;;5.25;4.65;;;11.10;99.90;;;;;;4934308;29;20300;-74
2024/03/13 06:55:36;;;;;;;5.60;4.20;;;11.10;99.90;;;;;;4934038;29;20267;-75
2024/03/13 06:58:02;;;;;;;3.70;3.30;;;11.20;99.90;;;;;;4965056;28;20600;-75
2024/03/13 07:00:28;;;;;;;4.80;3.77;;;11.20;99.90;;;;;;4932427;29;20593;-76
2024/03/13 07:02:57;;;;;;;4.93;4.43;;;11.20;99.90;;;;;;4932281;29;20698;-76
2024/03/13 07:05:23;;;;;;;4.38;3.97;;;11.30;99.90;;;;;;4933481;29;20209;-74
2024/03/13 07:07:49;;;;;;;5.20;4.07;;;11.30;99.90;;;;;;4957974;28;20173;-76
2024/03/13 07:10:15;;;;;;;4.05;3.35;;;11.40;99.90;;;;;;4933103;29;20585;-76
2024/03/13 07:12:42;;;;;;;5.57;4.75;;;11.40;99.90;;;;;;4933119;29;20635;-76
2024/03/13 07:15:10;;;;;;;3.88;3.47;;;11.50;99.90;;;;;;4932836;29;20259;-76
2024/03/13 07:17:39;;;;;;;4.03;3.55;;;11.50;99.90;;;;;;4932496;29;20192;-76
2024/03/13 07:20:09;;;;;;;4.18;3.75;;;11.60;99.90;;;;;;4933140;29;20317;-76
2024/03/13 07:22:38;;;;;;;5.25;4.15;;;11.70;99.90;;;;;;4931924;29;20268;-76
2024/03/13 07:25:09;;;;;;;4.93;4.25;;;11.80;99.90;;;;;;4931883;29;20216;-75
2024/03/13 07:27:35;;;;;;;4.47;4.07;;;11.90;99.90;;;;;;4932155;29;20235;-75
2024/03/13 07:30:04;;;;;;;4.70;3.95;;;12.00;99.90;;;;;;4933173;29;20177;-75
2024/03/13 07:32:32;;;;;;;5.63;4.40;;;12.10;99.90;;;;;;4930893;29;20847;-75
2024/03/13 07:34:58;;;;;;;5.28;4.45;;;12.20;99.90;;;;;;4933672;29;20193;-75
2024/03/13 07:37:25;;;;;;;4.20;3.80;;;12.30;99.90;;;;;;4932116;29;20181;-75
2024/03/13 07:39:52;;;;;;;4.70;4.17;;;12.40;99.90;;;;;;4931341;29;20177;-76
2024/03/13 07:42:18;;;;;;;4.60;4.18;;;12.50;99.90;;;;;;4915734;29;20612;-76
2024/03/13 07:44:45;;;;;;;6.93;4.10;;;12.60;99.90;;;;;;4933024;29;20284;-75
2024/03/13 07:47:11;;;;;;;5.93;3.78;;;12.70;99.90;;;;;;4917140;29;20589;-75
2024/03/13 07:49:37;;;;;;;4.70;3.90;;;12.80;99.90;;;;;;4931286;29;20181;-76
2024/03/13 07:52:04;;;;;;;6.17;4.37;;;12.90;99.90;;;;;;4932891;29;20675;-74
2024/03/13 07:54:30;;;;;;;5.40;4.00;;;13.00;99.90;;;;;;4932205;29;20696;-75
2024/03/13 07:56:56;;;;;;;3.87;3.40;;;13.00;99.90;;;;;;4931823;29;20648;-75
2024/03/13 07:59:27;;;;;;;5.57;3.03;;;13.10;99.90;;;;;;4931775;29;20589;-75
2024/03/13 08:01:53;;;;;;;2.90;2.00;;;13.10;99.90;;;;;;4932759;29;20280;-76
2024/03/13 08:04:21;;;;;;;3.00;2.20;;;13.20;99.90;;;;;;4932422;29;20633;-74
2024/03/13 08:06:47;;;;;;;4.60;2.93;;;13.30;99.90;;;;;;4932613;29;20576;-74
2024/03/13 08:09:13;;;;;;;3.20;2.57;;;13.30;99.90;;;;;;4931488;29;20599;-74
2024/03/13 08:11:38;;;;;;;3.87;2.20;;;13.40;99.90;;;;;;4931869;29;20287;-74
2024/03/13 08:14:04;;;;;;;3.37;2.33;;;13.40;99.90;;;;;;4930568;29;20192;-74
2024/03/13 08:16:30;;;;;;;4.70;2.57;;;13.40;99.90;;;;;;4932198;29;20177;-74
2024/03/13 08:18:57;;;;;;;4.13;2.50;;;13.50;99.90;;;;;;4931054;29;20187;-75
2024/03/13 08:21:24;;;;;;;4.60;2.33;;;13.50;99.90;;;;;;4928646;29;20593;-76
2024/03/13 08:23:50;;;;;;;6.07;2.63;;;13.50;99.90;;;;;;4928864;29;20820;-75
2024/03/13 08:26:18;;;;;;;5.00;3.03;;;13.50;99.90;;;;;;4931664;29;20643;-75
2024/03/13 08:28:44;;;;;;;4.13;2.67;;;13.50;99.90;;;;;;4962388;28;20209;-75
2024/03/13 08:31:16;;;;;;;5.13;3.80;;;13.50;99.90;;;;;;4930021;29;20993;-75
2024/03/13 08:33:43;;;;;;;5.33;3.83;;;13.50;99.90;;;;;;4932174;29;20208;-75
2024/03/13 08:36:08;;;;;;;9.60;7.17;;;13.60;99.90;;;;;;4932800;29;20628;-75
2024/03/13 08:38:34;;;;;;;6.30;4.10;;;13.60;99.90;;;;;;4959207;28;21182;-76
2024/03/13 08:41:00;;;;;;;4.50;3.67;;;13.60;99.90;;;;;;4930974;29;20210;-75
2024/03/13 08:43:27;;;;;;;5.00;3.83;;;13.60;99.90;;;;;;4932549;29;20243;-75
2024/03/13 08:45:53;;;;;;;4.47;3.60;;;13.60;99.90;;;;;;4931333;29;20637;-74
2024/03/13 08:48:19;;;;;;;4.83;3.10;;;13.60;99.90;;;;;;4932827;29;20592;-75
2024/03/13 08:50:45;;;;;;;3.57;2.97;;;13.60;99.90;;;;;;4931957;29;20181;-74
2024/03/13 08:53:14;;;;;;;5.10;3.80;;;13.60;99.90;;;;;;4932347;29;20663;-74
2024/03/13 08:55:40;;;;;;;5.57;3.80;;;13.60;99.90;;;;;;4932416;29;20563;-75
2024/03/13 08:58:06;;;;;;;5.20;3.27;;;13.60;99.90;;;;;;4931732;29;20577;-74
2024/03/13 09:00:32;;;;;;;5.93;4.30;;;13.60;99.90;;;;;;4934510;29;21189;-74
2024/03/13 09:03:00;;;;;;;8.07;3.70;;;13.60;99.90;;;;;;4934040;29;20631;-75
2024/03/13 09:05:29;;;;;;;8.70;5.40;;;13.60;99.90;;;;;;4935845;29;21031;-75
2024/03/13 09:07:55;;;;;;;8.23;4.50;;;13.70;99.90;;;;;;4936252;29;20600;-74
2024/03/13 09:10:22;;;;;;;6.33;3.27;;;13.70;99.90;;;;;;4935964;29;20677;-75
2024/03/13 09:12:50;;;;;;;6.70;3.40;;;13.70;99.90;;;;;;4935235;29;20192;-76
2024/03/13 09:15:16;;;;;;;6.97;4.13;;;13.70;99.90;;;;;;4935935;29;20639;-74
2024/03/13 09:17:41;;;;;;;5.23;4.00;;;13.80;99.90;;;;;;4934748;29;20597;-74
2024/03/13 09:20:08;;;;;;;6.20;3.87;;;13.80;99.90;;;;;;4935369;29;21146;-74
2024/03/13 09:22:33;;;;;;;5.10;3.97;;;13.80;99.90;;;;;;4934224;29;20212;-74
2024/03/13 09:24:59;;;;;;;7.00;4.20;;;13.90;99.90;;;;;;4935694;29;20663;-74
2024/03/13 09:27:25;;;;;;;5.93;4.20;;;13.90;99.90;;;;;;4934837;29;20189;-74
2024/03/13 09:29:54;;;;;;;5.40;3.47;;;14.00;99.90;;;;;;4950036;29;20240;-75
2024/03/13 09:32:22;;;;;;;3.90;3.10;;;14.00;99.90;;;;;;4935343;29;20616;-74
2024/03/13 09:34:49;;;;;;;5.67;3.10;;;14.10;99.90;;;;;;4933994;29;20656;-75
2024/03/13 09:37:17;;;;;;;4.40;3.50;;;14.10;99.90;;;;;;4934643;29;20605;-74
2024/03/13 09:39:43;;;;;;;4.67;3.50;;;14.20;99.90;;;;;;4933951;29;20916;-74
2024/03/13 09:42:18;;;;;;;8.10;4.10;;;14.20;99.90;;;;;;4950049;28;20615;-74
2024/03/13 09:44:46;;;;;;;6.27;2.90;;;14.30;99.90;;;;;;4935494;29;20212;-74
2024/03/13 09:47:12;;;;;;;5.67;2.70;;;14.30;99.90;;;;;;4934078;29;20580;-75
2024/03/13 09:49:43;;;;;;;3.80;2.90;;;14.40;99.90;;;;;;4934859;29;20680;-75
2024/03/13 09:52:12;;;;;;;5.10;2.40;;;14.50;99.90;;;;;;4933200;29;20628;-76
2024/03/13 09:54:45;;;;;;;3.07;2.33;;;14.50;99.90;;;;;;4934138;29;20606;-75
2024/03/13 09:57:15;;;;;;;3.60;2.23;;;14.50;99.90;;;;;;4935064;29;21218;-75
2024/03/13 09:59:41;;;;;;;3.20;2.60;;;14.60;99.90;;;;;;4949349;29;20588;-74
2024/03/13 10:02:21;;;;;;;3.83;2.43;;;14.70;99.90;;;;;;4933663;29;20640;-75
2024/03/13 10:04:48;;;;;;;4.37;2.07;;;14.70;99.90;;;;;;4934552;29;20632;-75
2024/03/13 10:07:20;;;;;;;3.10;2.17;;;14.90;99.90;;;;;;4935178;29;20581;-75
2024/03/13 10:09:47;;;;;;;3.43;2.07;;;15.10;99.90;;;;;;4934141;29;20597;-74
2024/03/13 10:12:15;;;;;;;4.07;2.00;;;15.30;99.90;;;;;;4917360;29;20715;-75
2024/03/13 10:14:43;;;;;;;2.20;1.57;;;15.40;99.90;;;;;;4933317;29;20592;-75
2024/03/13 10:17:11;;;;;;;3.40;2.27;;;15.60;99.90;;;;;;4935087;29;20592;-76
2024/03/13 10:19:44;;;;;;;4.37;3.00;;;15.60;99.90;;;;;;4934254;29;20681;-75
2024/03/13 10:22:11;;;;;;;4.33;2.13;;;15.70;99.90;;;;;;4934838;29;20978;-75
2024/03/13 10:24:41;;;;;;;2.20;1.57;;;15.90;99.90;;;;;;4934498;29;20628;-75
2024/03/13 10:27:09;;;;;;;3.67;1.20;;;16.00;99.90;;;;;;4934803;29;20604;-75
2024/03/13 10:29:35;;;;;;;3.40;1.03;;;16.10;99.90;;;;;;4933051;29;20641;-75
2024/03/13 10:32:03;;;;;;;2.20;1.40;;;16.30;99.90;;;;;;4917182;29;20617;-76
2024/03/13 10:34:29;;;;;;;3.93;1.80;;;16.30;99.90;;;;;;4917338;29;20593;-75
2024/03/13 10:36:56;;;;;;;6.13;2.50;;;16.40;99.90;;;;;;4934833;29;20647;-75
2024/03/13 10:39:22;;;;;;;3.20;1.63;;;16.50;99.90;;;;;;4949282;29;20195;-75
2024/03/13 10:41:50;;;;;;;4.70;1.00;;;16.50;99.90;;;;;;4916737;29;20621;-76
2024/03/13 10:44:18;;;;;;;3.17;1.00;;;16.50;99.90;;;;;;4932945;29;20205;-76
2024/03/13 10:46:44;;;;;;;1.80;0.90;;;16.50;99.90;;;;;;4934054;29;20592;-76
2024/03/13 10:49:16;;;;;;;4.03;1.30;;;16.50;99.90;;;;;;4934412;29;20589;-76
2024/03/13 10:51:41;;;;;;;3.20;1.10;;;16.50;99.90;;;;;;4932266;29;21017;-76
2024/03/13 10:54:11;;;;;;;2.03;1.00;;;16.50;99.90;;;;;;4933611;29;20668;-76
2024/03/13 10:56:37;;;;;;;2.37;1.43;;;16.50;99.90;;;;;;4919189;29;20601;-76
2024/03/13 10:59:03;;;;;;;2.50;1.00;;;16.60;99.90;;;;;;4964756;28;20608;-76
2024/03/13 11:01:30;;;;;;;2.67;1.10;;;16.60;99.90;;;;;;4933140;29;20778;-76
2024/03/13 11:03:59;;;;;;;2.37;1.20;;;16.60;99.90;;;;;;4926054;29;20604;-77
2024/03/13 11:06:26;;;;;;;3.07;1.27;;;16.60;99.90;;;;;;4933338;29;20596;-75
2024/03/13 11:08:52;;;;;;;2.10;1.03;;;16.70;99.90;;;;;;4933821;29;20577;-75
2024/03/13 11:11:23;;;;;;;1.57;0.90;;;16.70;99.90;;;;;;4933191;29;20673;-75
2024/03/13 11:13:54;;;;;;;1.97;1.00;;;16.80;99.90;;;;;;4931940;29;20623;-75
2024/03/13 11:16:23;;;;;;;3.43;1.70;;;16.80;99.90;;;;;;4932919;29;20592;-75
2024/03/13 11:18:55;;;;;;;2.07;1.10;;;16.90;99.90;;;;;;4933354;29;20648;-75
2024/03/13 11:21:35;;;;;;;5.90;1.07;;;16.90;99.90;;;;;;4932368;29;20649;-75
2024/03/13 11:24:07;;;;;;;1.97;1.03;;;17.00;99.90;;;;;;4926244;29;20589;-75
2024/03/13 11:26:39;;;;;;;3.30;1.20;;;17.10;99.90;;;;;;4933744;29;20593;-75
2024/03/13 11:29:12;;;;;;;1.87;0.90;;;17.10;99.90;;;;;;4935469;29;20673;-75
2024/03/13 11:31:41;;;;;;;2.23;1.30;;;17.20;99.90;;;;;;4933600;29;21236;-73
2024/03/13 11:34:09;;;;;;;1.80;1.20;;;17.20;99.90;;;;;;4936592;29;20589;-73
2024/03/13 11:36:35;;;;;;;2.37;1.10;;;17.30;99.90;;;;;;4934892;29;20600;-73
2024/03/13 11:39:03;;;;;;;3.00;1.20;;;17.30;99.90;;;;;;4934645;29;20942;-73
2024/03/13 11:41:31;;;;;;;2.73;1.40;;;17.30;99.90;;;;;;4916872;29;20599;-73
2024/03/13 11:43:58;;;;;;;3.40;1.63;;;17.30;99.90;;;;;;4933165;29;20600;-73
2024/03/13 11:46:33;;;;;;;3.23;1.57;;;17.20;99.90;;;;;;4934865;29;20581;-74
2024/03/13 11:49:01;;;;;;;3.77;1.57;;;17.20;99.90;;;;;;4933462;29;20653;-74
2024/03/13 11:51:31;;;;;;;1.97;1.23;;;17.20;99.90;;;;;;4933870;29;20578;-75
2024/03/13 11:54:11;;;;;;;3.10;1.73;;;17.20;99.90;;;;;;4932928;29;20593;-74
2024/03/13 11:56:40;;;;;;;2.70;1.60;;;17.10;99.90;;;;;;4942886;29;21256;-76
2024/03/13 11:59:05;;;;;;;2.00;1.67;;;17.10;99.90;;;;;;4945777;29;20584;-77
2024/03/13 12:01:35;;;;;;;2.10;1.60;;;17.10;99.90;;;;;;4940559;29;20623;-76
2024/03/13 12:04:05;;;;;;;2.87;1.37;;;17.10;99.90;;;;;;4948110;29;20271;-75
2024/03/13 12:06:31;;;;;;;2.60;1.60;;;17.10;99.90;;;;;;4921002;29;20700;-76
2024/03/13 12:08:57;;;;;;;4.00;1.70;;;17.10;99.90;;;;;;4942478;29;20742;-77
2024/03/13 12:11:25;;;;;;;2.37;1.70;;;17.10;99.90;;;;;;4939891;29;20177;-74
2024/03/13 12:13:51;;;;;;;3.23;2.57;;;17.10;99.90;;;;;;4934131;29;20592;-76
2024/03/13 12:16:17;;;;;;;4.60;2.37;;;17.10;99.90;;;;;;4933942;29;21276;-73
2024/03/13 12:18:52;;;;;;;3.13;2.20;;;17.10;99.90;;;;;;4932570;29;20521;-73
2024/03/13 12:21:20;;;;;;;2.60;1.70;;;17.10;99.90;;;;;;4933421;29;20188;-72
2024/03/13 12:23:47;;;;;;;5.43;1.60;;;17.10;99.90;;;;;;4936435;29;20612;-75
2024/03/13 12:26:13;;;;;;;3.50;1.90;;;17.10;99.90;;;;;;4921868;29;20648;-76
2024/03/13 12:28:39;;;;;;;2.30;1.20;;;17.10;99.90;;;;;;4935907;29;20676;-75
2024/03/13 12:31:06;;;;;;;4.33;1.20;;;17.10;99.90;;;;;;4944054;29;20597;-76
2024/03/13 12:33:36;;;;;;;3.63;1.60;;;17.10;99.90;;;;;;4942958;29;20691;-76
2024/03/13 12:36:03;;;;;;;3.10;1.70;;;17.10;99.90;;;;;;4955211;29;20593;-76
2024/03/13 12:38:39;;;;;;;2.90;1.53;;;17.10;99.90;;;;;;4948796;29;20930;-76
2024/03/13 12:41:08;;;;;;;2.70;1.43;;;17.10;99.90;;;;;;4944139;29;20695;-77
2024/03/13 12:43:34;;;;;;;2.30;1.67;;;17.20;99.90;;;;;;4947995;29;20617;-77
2024/03/13 12:46:04;;;;;;;3.03;1.17;;;17.20;99.90;;;;;;4948848;29;20740;-76
2024/03/13 12:48:33;;;;;;;3.40;1.33;;;17.20;99.90;;;;;;4953301;29;20620;-76
2024/03/13 12:51:02;;;;;;;2.60;1.17;;;17.20;99.90;;;;;;4950567;29;20585;-76
2024/03/13 12:53:31;;;;;;;3.60;1.57;;;17.20;99.90;;;;;;4948079;29;20704;-75
2024/03/13 12:55:57;;;;;;;2.17;1.40;;;17.10;99.90;;;;;;4955144;29;20704;-76
2024/03/13 12:58:26;;;;;;;2.50;1.20;;;17.10;99.90;;;;;;4952184;29;21138;-76
2024/03/13 13:00:52;;;;;;;3.30;1.10;;;17.10;99.90;;;;;;4950922;29;20280;-76
2024/03/13 13:03:18;;;;;;;2.57;1.40;;;17.10;99.90;;;;;;4944913;29;20683;-77
2024/03/13 13:05:47;;;;;;;2.70;1.50;;;17.10;99.90;;;;;;4947191;29;20608;-77
2024/03/13 13:08:14;;;;;;;2.73;1.23;;;17.10;99.90;;;;;;4949094;29;20581;-76
2024/03/13 13:10:40;;;;;;;2.47;1.47;;;17.10;99.90;;;;;;4946065;29;21209;-76
2024/03/13 13:13:07;;;;;;;6.03;1.80;;;17.10;99.90;;;;;;4940059;29;20197;-76
2024/03/13 13:15:33;;;;;;;4.83;1.57;;;17.10;99.90;;;;;;4957496;29;20441;-76
2024/03/13 13:17:59;;;;;;;4.57;2.00;;;17.00;99.90;;;;;;4962546;29;20589;-76
2024/03/13 13:20:25;;;;;;;4.07;2.50;;;17.00;99.90;;;;;;4949099;29;20685;-76
2024/03/13 13:22:52;;;;;;;5.40;2.60;;;17.00;99.90;;;;;;4933138;29;20236;-76
2024/03/13 13:25:22;;;;;;;3.63;2.27;;;17.00;99.90;;;;;;4951346;29;20212;-77
2024/03/13 13:27:50;;;;;;;2.90;2.27;;;17.00;99.90;;;;;;4949711;29;20593;-77